Time;durP1;ratioP1;P1;durP2;ratioP2;P2;SDS_P1;SDS_P2;PMS_P1;PMS_P2;Temp;Humidity;BMP_temperature;BMP_pressure;BME280_temperature;BME280_humidity;BME280_pressure;Samples;Min_cycle;Max_cycle;Signal;HPM_P1;HPM_P2
2021/07/15 00:00:27;;;;;;;10.43;5.70;;;;;;;21.28;72.41;99236.91;1698463;84;21088;-60
2021/07/15 00:02:59;;;;;;;12.45;5.87;;;;;;;21.24;72.44;99225.77;1670271;84;20953;-60
2021/07/15 00:05:32;;;;;;;9.80;5.22;;;;;;;21.21;72.49;99220.77;1680208;85;21480;-60
2021/07/15 00:08:00;;;;;;;11.22;5.12;;;;;;;21.16;72.50;99223.86;1700064;84;20998;-60
2021/07/15 00:10:51;;;;;;;13.50;5.65;;;;;;;21.12;72.57;99233.13;1680436;85;20963;-60
2021/07/15 00:13:21;;;;;;;11.30;6.15;;;;;;;21.09;72.67;99228.12;1698119;84;20965;-60
2021/07/15 00:15:52;;;;;;;15.13;5.97;;;;;;;21.07;72.73;99234.07;1693519;84;20930;-60
2021/07/15 00:18:28;;;;;;;13.90;5.60;;;;;;;21.06;72.71;99236.39;1695532;84;21560;-60
2021/07/15 00:20:58;;;;;;;13.13;5.65;;;;;;;21.06;72.83;99241.70;1699237;84;20938;-60
2021/07/15 00:23:26;;;;;;;10.05;5.47;;;;;;;21.02;72.89;99257.58;1709786;84;21032;-60
2021/07/15 00:25:53;;;;;;;10.10;6.00;;;;;;;20.97;72.94;99267.80;1708794;84;20894;-60
2021/07/15 00:28:20;;;;;;;;;;;;;;;20.92;73.04;99267.41;1701702;84;20930;-60
2021/07/15 00:30:47;;;;;;;15.28;6.05;;;;;;;20.88;73.17;99271.36;1699844;84;21117;-60
2021/07/15 00:33:15;;;;;;;16.80;6.75;;;;;;;20.84;73.22;99279.27;1652792;86;21010;-60
2021/07/15 00:35:42;;;;;;;13.58;6.70;;;;;;;20.76;73.36;99272.89;1701256;84;21037;-60
2021/07/15 00:38:08;;;;;;;;;;;;;;;20.72;73.48;99255.59;1676865;85;20990;-60
2021/07/15 00:40:38;;;;;;;11.53;6.58;;;;;;;20.67;73.67;99251.71;1678974;85;20100;-60
2021/07/15 00:43:07;;;;;;;13.10;6.72;;;;;;;20.61;73.63;99247.84;1679971;85;21551;-60
2021/07/15 00:45:34;;;;;;;12.03;6.70;;;;;;;20.56;73.79;99244.82;1684512;84;21622;-60
2021/07/15 00:48:04;;;;;;;;;;;;;;;20.50;73.92;99221.02;1697025;84;21562;-60
2021/07/15 00:50:31;;;;;;;10.55;6.28;;;;;;;20.48;74.23;99215.52;1681631;84;20440;-60
2021/07/15 00:52:58;;;;;;;11.45;6.67;;;;;;;20.44;74.14;99202.19;1690260;84;21038;-60
2021/07/15 00:55:32;;;;;;;18.62;7.67;;;;;;;20.41;74.33;99190.56;1660673;84;21173;-60
2021/07/15 00:58:01;;;;;;;21.77;7.55;;;;;;;20.35;74.44;99188.84;1666871;85;21045;-60
2021/07/15 01:00:28;;;;;;;10.80;7.35;;;;;;;20.31;74.53;99180.85;1697684;84;21031;-60
2021/07/15 01:02:56;;;;;;;16.95;8.35;;;;;;;20.28;74.73;99171.88;1682930;84;20973;-60
2021/07/15 01:05:32;;;;;;;15.32;7.25;;;;;;;20.33;74.87;99184.20;1680325;85;21576;-60
2021/07/15 01:08:03;;;;;;;13.87;6.30;;;;;;;20.32;74.89;99182.52;1699354;84;21189;-60
2021/07/15 01:10:35;;;;;;;13.32;8.00;;;;;;;20.34;75.08;99192.48;1711664;83;21551;-60
2021/07/15 01:13:34;;;;;;;13.43;7.58;;;;;;;20.34;75.16;99209.72;1706277;84;20909;-60
2021/07/15 01:16:18;;;;;;;16.02;7.97;;;;;;;20.33;75.28;99225.76;1703909;84;21492;-60
2021/07/15 01:19:13;;;;;;;17.65;7.12;;;;;;;20.30;75.34;99237.48;1688745;84;21524;-60
2021/07/15 01:22:13;;;;;;;20.30;8.08;;;;;;;20.28;75.45;99251.41;1691703;84;21447;-60
2021/07/15 01:25:20;;;;;;;16.75;7.53;;;;;;;20.23;75.54;99241.72;1653389;86;21026;-60
2021/07/15 01:27:58;;;;;;;12.00;6.83;;;;;;;20.19;75.67;99250.93;1691736;84;20974;-60
2021/07/15 01:30:36;;;;;;;10.85;6.58;;;;;;;20.15;75.81;99250.06;1690291;84;20975;-60
2021/07/15 01:33:19;;;;;;;14.35;8.28;;;;;;;20.10;75.95;99255.78;1672526;84;20989;-60
2021/07/15 01:36:09;;;;;;;16.97;7.87;;;;;;;20.07;76.03;99257.41;1656539;85;21119;-60
2021/07/15 01:38:46;;;;;;;12.58;7.90;;;;;;;20.06;76.18;99250.44;1651303;86;21043;-60
2021/07/15 01:41:24;;;;;;;19.00;8.33;;;;;;;20.06;76.29;99276.45;1634376;86;21097;-62
2021/07/15 01:44:02;;;;;;;19.32;8.08;;;;;;;20.02;76.38;99286.97;1682810;84;20951;-62
2021/07/15 01:46:29;;;;;;;15.23;7.95;;;;;;;19.99;76.44;99278.48;1691642;84;21417;-62
2021/07/15 01:48:55;;;;;;;15.65;7.65;;;;;;;19.94;76.67;99273.63;1651824;85;21110;-62
2021/07/15 01:51:23;;;;;;;16.82;7.97;;;;;;;19.92;76.58;99264.16;1706975;83;20919;-62
2021/07/15 01:53:52;;;;;;;15.43;8.78;;;;;;;19.88;76.76;99246.36;1669076;85;20943;-62
2021/07/15 01:56:20;;;;;;;17.98;8.55;;;;;;;19.88;76.75;99235.30;1651022;86;20944;-63
2021/07/15 01:58:49;;;;;;;23.45;8.95;;;;;;;19.87;76.84;99233.61;1668282;84;21005;-62
2021/07/15 02:01:19;;;;;;;12.30;8.15;;;;;;;19.85;76.93;99238.20;1740337;82;21090;-62
2021/07/15 02:03:49;;;;;;;13.68;8.65;;;;;;;19.79;76.98;99238.79;1736205;82;21413;-62
2021/07/15 02:06:18;;;;;;;17.98;8.75;;;;;;;19.71;77.15;99236.02;1738299;81;21519;-62
2021/07/15 02:08:47;;;;;;;15.48;9.25;;;;;;;19.67;77.26;99239.45;1736945;82;20938;-62
2021/07/15 02:11:15;;;;;;;20.00;8.65;;;;;;;19.63;77.29;99235.39;1730546;82;21558;-63
2021/07/15 02:13:44;;;;;;;21.77;8.85;;;;;;;19.60;77.50;99238.80;1726596;81;21104;-62
2021/07/15 02:16:13;;;;;;;18.07;9.85;;;;;;;19.56;77.64;99233.45;1741606;81;20882;-62
2021/07/15 02:18:42;;;;;;;18.42;8.93;;;;;;;19.51;77.79;99233.03;1726390;81;20988;-62
2021/07/15 02:21:09;;;;;;;21.30;9.78;;;;;;;19.46;77.91;99226.82;1737518;81;20894;-62
2021/07/15 02:23:36;;;;;;;12.28;9.10;;;;;;;19.40;78.00;99221.61;1733931;81;20993;-62
2021/07/15 02:26:04;;;;;;;18.10;9.70;;;;;;;19.38;78.10;99206.38;1739810;82;21180;-62
2021/07/15 02:28:33;;;;;;;18.32;9.28;;;;;;;19.37;78.13;99201.20;1739671;82;20917;-62
2021/07/15 02:31:08;;;;;;;17.77;9.50;;;;;;;19.35;78.21;99198.72;1719961;82;20942;-62
2021/07/15 02:33:39;;;;;;;15.83;10.15;;;;;;;19.38;78.39;99203.72;1748580;81;20996;-62
2021/07/15 02:36:06;;;;;;;13.95;8.93;;;;;;;19.37;78.40;99196.73;1689973;84;21049;-62
2021/07/15 02:38:34;;;;;;;14.30;9.23;;;;;;;19.37;78.40;99187.47;1730437;82;21885;-62
2021/07/15 02:41:01;;;;;;;13.05;8.63;;;;;;;19.36;78.41;99179.20;1688446;84;21065;-62
2021/07/15 02:43:29;;;;;;;20.40;9.68;;;;;;;19.35;78.50;99174.89;1743623;81;27078;-62
2021/07/15 02:45:56;;;;;;;12.30;8.68;;;;;;;19.35;78.55;99170.92;1736875;81;21022;-62
2021/07/15 02:48:23;;;;;;;19.87;8.83;;;;;;;19.37;78.67;99158.84;1740354;81;20888;-62
2021/07/15 02:50:50;;;;;;;18.45;9.43;;;;;;;19.36;78.71;99159.34;1735520;82;21090;-62
2021/07/15 02:53:20;;;;;;;16.00;9.13;;;;;;;19.35;78.68;99159.02;1731391;82;20992;-62
2021/07/15 02:56:04;;;;;;;13.18;8.55;;;;;;;19.36;78.87;99165.96;1731829;82;20907;-62
2021/07/15 02:58:35;;;;;;;15.95;9.18;;;;;;;19.37;78.89;99163.66;1708783;83;21564;-62
2021/07/15 03:01:07;;;;;;;13.38;9.50;;;;;;;19.37;78.91;99154.39;1740242;82;20985;-62
2021/07/15 03:04:14;;;;;;;14.98;9.35;;;;;;;19.35;78.91;99145.77;1737464;82;21096;-62
2021/07/15 03:06:44;;;;;;;16.50;8.35;;;;;;;19.35;78.92;99144.45;1679022;85;21016;-62
2021/07/15 03:09:14;;;;;;;16.87;9.28;;;;;;;19.41;79.21;99145.20;1739092;81;20966;-62
2021/07/15 03:11:59;;;;;;;18.48;10.15;;;;;;;19.52;79.37;99145.98;1750417;81;20887;-62
2021/07/15 03:14:30;;;;;;;16.95;9.23;;;;;;;19.62;79.40;99152.93;1725972;82;21001;-62
2021/07/15 03:16:57;;;;;;;14.15;9.28;;;;;;;19.68;79.29;99154.20;1741125;81;21078;-62
2021/07/15 03:19:31;;;;;;;14.33;10.20;;;;;;;19.70;79.04;99154.90;1739162;82;20914;-62
2021/07/15 03:22:02;;;;;;;16.07;10.08;;;;;;;19.70;79.14;99165.49;1744645;81;21012;-62
2021/07/15 03:24:33;;;;;;;14.78;8.28;;;;;;;19.74;79.15;99174.80;1740405;81;21028;-62
2021/07/15 03:27:04;;;;;;;12.85;9.33;;;;;;;19.72;79.09;99175.46;1739988;82;21487;-62
2021/07/15 03:29:33;;;;;;;14.00;8.83;;;;;;;19.63;79.14;99180.24;1740111;81;21126;-62
2021/07/15 03:32:04;;;;;;;17.95;8.95;;;;;;;19.58;79.33;99183.34;1717116;82;21009;-62
2021/07/15 03:34:33;;;;;;;16.60;8.90;;;;;;;19.62;79.51;99181.23;1736354;81;20887;-63
2021/07/15 03:37:01;;;;;;;14.00;9.33;;;;;;;19.68;79.52;99178.03;1750463;81;21004;-62
2021/07/15 03:39:28;;;;;;;14.35;8.78;;;;;;;19.73;79.53;99168.34;1714646;82;21050;-62
2021/07/15 03:41:55;;;;;;;14.23;9.03;;;;;;;19.78;79.47;99157.66;1707763;82;21097;-62
2021/07/15 03:44:23;;;;;;;14.13;9.88;;;;;;;19.81;79.51;99141.47;1743068;81;23727;-62
2021/07/15 03:46:51;;;;;;;17.75;10.10;;;;;;;19.85;79.54;99148.13;1727868;82;21463;-62
2021/07/15 03:49:21;;;;;;;16.00;9.95;;;;;;;19.95;79.79;99152.58;1740321;81;20869;-62
2021/07/15 03:51:50;;;;;;;16.97;9.70;;;;;;;20.07;79.80;99148.75;1745946;81;20934;-62
2021/07/15 03:54:21;;;;;;;12.37;8.80;;;;;;;20.17;79.71;99154.84;1738692;81;21081;-62
2021/07/15 03:56:51;;;;;;;14.33;9.95;;;;;;;20.30;79.91;99155.30;1736392;81;20920;-63
2021/07/15 03:59:19;;;;;;;15.78;9.50;;;;;;;20.92;80.74;99149.33;1739680;82;21281;-63
2021/07/15 04:02:05;;;;;;;17.60;9.40;;;;;;;22.15;80.31;99145.63;1735226;81;20953;-63
2021/07/15 04:04:33;;;;;;;15.28;8.35;;;;;;;23.44;80.09;99151.34;1747348;81;21508;-63
2021/07/15 04:07:03;;;;;;;16.93;9.10;;;;;;;24.89;79.13;99159.91;1750728;81;21185;-63
2021/07/15 04:09:36;;;;;;;14.10;8.78;;;;;;;25.90;77.52;99160.52;1746398;81;21492;-63
2021/07/15 04:12:06;;;;;;;16.90;9.28;;;;;;;26.58;75.75;99159.01;1751361;81;21131;-64
2021/07/15 04:15:02;;;;;;;14.07;8.25;;;;;;;27.11;75.91;99164.41;1745946;81;21044;-61
2021/07/15 04:17:52;;;;;;;14.18;8.13;;;;;;;27.85;75.54;99167.97;1745270;81;21425;-61
2021/07/15 04:20:21;;;;;;;17.42;8.25;;;;;;;28.48;74.14;99157.64;1748972;81;21509;-61
2021/07/15 04:22:52;;;;;;;17.30;8.48;;;;;;;28.82;73.71;99145.11;1746102;81;21042;-61
2021/07/15 04:25:22;;;;;;;17.32;7.95;;;;;;;29.26;73.29;99135.13;1749291;81;20935;-61
2021/07/15 04:27:52;;;;;;;14.28;7.33;;;;;;;29.93;73.54;99150.66;1748792;81;20904;-61
2021/07/15 04:30:20;;;;;;;15.40;6.78;;;;;;;30.29;72.34;99149.32;1743612;81;21038;-62
2021/07/15 04:32:58;;;;;;;15.95;7.40;;;;;;;30.57;71.25;99150.84;1730648;81;21129;-61
2021/07/15 04:35:26;;;;;;;11.85;6.35;;;;;;;31.11;71.91;99149.45;1735734;81;20973;-61
2021/07/15 04:37:53;;;;;;;16.87;6.58;;;;;;;31.70;70.52;99146.74;1736438;82;21005;-61
2021/07/15 04:40:24;;;;;;;11.25;5.58;;;;;;;31.96;69.58;99169.13;1726339;82;20954;-61
2021/07/15 04:43:05;;;;;;;16.27;6.40;;;;;;;32.16;68.41;99179.19;1739146;82;20893;-62
2021/07/15 04:45:36;;;;;;;12.00;6.75;;;;;;;32.37;68.10;99171.66;1738156;82;21175;-61
2021/07/15 04:48:04;;;;;;;12.05;6.25;;;;;;;32.68;67.65;99178.21;1740060;82;22206;-61
2021/07/15 04:50:34;;;;;;;15.30;7.12;;;;;;;32.86;66.71;99180.05;1747759;81;20895;-61
2021/07/15 04:53:08;;;;;;;13.38;7.20;;;;;;;33.05;65.99;99187.60;1732739;81;20863;-62
2021/07/15 04:55:36;;;;;;;16.25;6.37;;;;;;;33.12;65.29;99191.01;1737395;82;21518;-62
2021/07/15 04:58:06;;;;;;;14.87;6.15;;;;;;;33.20;64.78;99204.20;1724212;82;21085;-62
2021/07/15 05:00:34;;;;;;;15.15;6.00;;;;;;;33.44;64.21;99206.92;1734508;82;20893;-62
2021/07/15 05:03:31;;;;;;;13.45;6.03;;;;;;;33.60;63.41;99218.44;1739472;82;20894;-62
2021/07/15 05:06:01;;;;;;;11.28;5.45;;;;;;;33.61;62.83;99220.11;1733561;81;20981;-62
2021/07/15 05:08:28;;;;;;;11.75;6.12;;;;;;;33.59;61.99;99214.09;1747821;81;20943;-61
2021/07/15 05:10:57;;;;;;;13.72;6.53;;;;;;;33.18;60.74;99191.96;1731366;82;21112;-61
2021/07/15 05:13:24;;;;;;;14.47;5.62;;;;;;;32.92;61.16;99212.09;1730242;82;21567;-62
2021/07/15 05:15:52;;;;;;;14.98;6.35;;;;;;;33.06;60.70;99221.69;1731494;82;20845;-62
2021/07/15 05:18:20;;;;;;;11.12;5.83;;;;;;;33.16;60.20;99220.61;1730897;82;20937;-63
2021/07/15 05:20:47;;;;;;;11.68;5.72;;;;;;;32.99;59.38;99220.92;1727722;82;21461;-63
2021/07/15 05:23:14;;;;;;;13.68;6.08;;;;;;;32.82;58.81;99222.63;1731416;82;21939;-63
2021/07/15 05:25:42;;;;;;;18.75;6.17;;;;;;;32.68;59.19;99213.88;1731035;82;20960;-63
2021/07/15 05:28:09;;;;;;;10.88;6.30;;;;;;;32.81;58.50;99212.88;1731224;82;20905;-63
2021/07/15 05:30:36;;;;;;;14.45;5.87;;;;;;;32.73;58.16;99212.14;1731140;82;21560;-63
2021/07/15 05:33:03;;;;;;;14.45;6.08;;;;;;;32.66;58.20;99214.13;1731372;82;20968;-62
2021/07/15 05:35:30;;;;;;;14.25;6.15;;;;;;;32.81;57.95;99218.30;1731487;82;21042;-63
2021/07/15 05:37:58;;;;;;;14.25;6.50;;;;;;;33.53;57.36;99213.69;1731270;82;20900;-63
2021/07/15 05:40:25;;;;;;;14.83;6.22;;;;;;;33.53;57.36;99213.69;1703797;84;20946;-63
2021/07/15 05:42:51;;;;;;;13.53;5.45;;;;;;;33.61;56.54;99209.78;1703894;84;21526;-63
2021/07/15 05:45:18;;;;;;;17.77;6.75;;;;;;;33.60;55.69;99208.97;1702992;83;20966;-63
2021/07/15 05:47:45;;;;;;;17.10;6.65;;;;;;;33.67;55.72;99208.02;1730766;82;21083;-63
2021/07/15 05:50:12;;;;;;;10.32;6.37;;;;;;;33.77;55.42;99213.68;1731278;82;20920;-63
2021/07/15 05:52:38;;;;;;;12.13;6.67;;;;;;;33.96;54.75;99217.91;1731044;82;20975;-62
2021/07/15 05:55:06;;;;;;;16.32;6.75;;;;;;;33.99;54.47;99214.72;1715868;83;21099;-63
2021/07/15 05:57:33;;;;;;;14.95;5.83;;;;;;;34.11;54.50;99216.61;1714016;82;20890;-63
2021/07/15 06:00:01;;;;;;;17.90;6.53;;;;;;;34.24;53.55;99221.78;1702515;84;21092;-63
2021/07/15 06:02:28;;;;;;;10.93;5.80;;;;;;;34.16;53.16;99219.44;1711141;82;21088;-63
2021/07/15 06:04:54;;;;;;;12.45;6.00;;;;;;;34.05;52.81;99224.63;1738653;81;21514;-63
2021/07/15 06:07:21;;;;;;;12.88;5.97;;;;;;;34.15;52.87;99231.34;1733825;81;21093;-64
2021/07/15 06:09:48;;;;;;;16.27;5.85;;;;;;;34.23;52.48;99230.98;1724433;82;20954;-64
2021/07/15 06:12:15;;;;;;;15.30;6.65;;;;;;;34.25;52.01;99239.67;1743474;81;21101;-63
2021/07/15 06:14:41;;;;;;;17.62;6.30;;;;;;;34.14;51.46;99248.64;1746299;81;21009;-63
2021/07/15 06:17:08;;;;;;;13.13;6.55;;;;;;;33.91;51.31;99247.57;1748047;81;20953;-63
2021/07/15 06:19:36;;;;;;;11.50;5.50;;;;;;;33.95;51.51;99246.05;1750814;81;20982;-63
2021/07/15 06:22:03;;;;;;;17.07;6.00;;;;;;;34.02;51.28;99244.03;1688831;84;21565;-65
2021/07/15 06:24:30;;;;;;;17.42;5.97;;;;;;;34.17;51.03;99243.59;1738770;81;21106;-63
2021/07/15 06:26:58;;;;;;;14.05;5.83;;;;;;;34.02;50.30;99250.80;1731303;81;20895;-64
2021/07/15 06:29:26;;;;;;;11.00;5.72;;;;;;;33.84;50.27;99250.95;1734823;81;21462;-63
2021/07/15 06:31:54;;;;;;;14.95;5.78;;;;;;;33.88;50.27;99258.88;1737869;81;21007;-63
2021/07/15 06:34:23;;;;;;;15.03;5.25;;;;;;;33.83;50.17;99257.41;1735310;81;20896;-63
2021/07/15 06:36:51;;;;;;;11.73;4.90;;;;;;;33.79;49.72;99263.01;1736285;81;21088;-63
2021/07/15 06:39:18;;;;;;;16.12;5.80;;;;;;;33.59;49.41;99271.47;1731720;81;20958;-63
2021/07/15 06:41:45;;;;;;;12.80;5.67;;;;;;;33.53;49.38;99275.94;1732520;81;20946;-63
2021/07/15 06:44:13;;;;;;;9.80;4.87;;;;;;;33.54;49.81;99277.58;1735982;81;20955;-63
2021/07/15 06:46:41;;;;;;;9.13;4.78;;;;;;;33.71;49.47;99279.59;1731679;82;21062;-63
2021/07/15 06:49:07;;;;;;;9.80;4.83;;;;;;;33.64;49.30;99285.95;1736907;81;21619;-63
2021/07/15 06:51:35;;;;;;;13.55;4.62;;;;;;;33.58;49.00;99281.48;1732476;81;21488;-63
2021/07/15 06:54:02;;;;;;;18.85;5.78;;;;;;;33.55;48.98;99285.16;1732851;81;20954;-64
2021/07/15 06:56:29;;;;;;;23.55;5.75;;;;;;;33.65;48.95;99282.18;1735076;81;21003;-63
2021/07/15 06:58:56;;;;;;;10.50;4.95;;;;;;;33.82;49.01;99274.72;1711135;81;21445;-63
2021/07/15 07:01:23;;;;;;;18.90;5.55;;;;;;;33.92;48.72;99267.34;1732961;81;20928;-64
2021/07/15 07:03:49;;;;;;;12.68;5.17;;;;;;;33.92;48.20;99265.99;1737500;81;21393;-63
2021/07/15 07:06:16;;;;;;;11.40;4.92;;;;;;;33.77;48.03;99265.12;1737115;81;20979;-64
2021/07/15 07:08:43;;;;;;;16.17;5.83;;;;;;;33.62;48.08;99271.82;1738610;81;21840;-63
2021/07/15 07:11:10;;;;;;;15.43;5.60;;;;;;;33.45;47.78;99267.30;1736005;81;20979;-63
2021/07/15 07:13:37;;;;;;;29.75;6.80;;;;;;;32.79;47.41;99267.70;1732972;81;21087;-63
2021/07/15 07:16:05;;;;;;;14.63;5.72;;;;;;;32.01;47.41;99278.63;1739559;81;20967;-63
2021/07/15 07:18:33;;;;;;;15.38;5.37;;;;;;;31.30;47.83;99276.56;1671888;83;21029;-63
2021/07/15 07:21:00;;;;;;;23.47;7.22;;;;;;;30.84;48.08;99270.09;1699723;82;21079;-63
2021/07/15 07:23:27;;;;;;;14.90;6.90;;;;;;;30.39;48.47;99273.59;1704489;82;20957;-62
2021/07/15 07:25:54;;;;;;;41.33;8.25;;;;;;;30.31;48.94;99276.51;1696809;82;21100;-62
2021/07/15 07:28:21;;;;;;;17.25;6.83;;;;;;;30.27;49.17;99277.95;1700272;82;20996;-62
2021/07/15 07:30:48;;;;;;;13.45;6.58;;;;;;;30.06;49.15;99281.19;1667256;84;21008;-62
2021/07/15 07:33:14;;;;;;;11.65;6.47;;;;;;;30.11;49.90;99289.47;1664713;84;21024;-62
2021/07/15 07:35:41;;;;;;;11.93;7.10;;;;;;;30.23;49.92;99295.58;1693997;82;21037;-62
2021/07/15 07:38:10;;;;;;;22.37;7.42;;;;;;;30.24;50.22;99290.49;1693759;83;21097;-62
2021/07/15 07:40:38;;;;;;;14.63;7.30;;;;;;;30.11;50.29;99293.50;1699912;82;21536;-63
2021/07/15 07:43:07;;;;;;;24.72;8.20;;;;;;;29.77;50.28;99296.41;1699643;82;21069;-62
2021/07/15 07:45:34;;;;;;;17.98;8.25;;;;;;;29.30;50.42;99300.92;1671036;84;21084;-62
2021/07/15 07:48:01;;;;;;;37.63;8.60;;;;;;;28.86;50.68;99290.94;1705536;82;21091;-63
2021/07/15 07:50:30;;;;;;;15.98;7.03;;;;;;;28.67;51.47;99295.19;1697788;83;21050;-63
2021/07/15 07:52:57;;;;;;;18.25;8.63;;;;;;;28.78;51.78;99290.59;1699488;82;21024;-61
2021/07/15 07:55:25;;;;;;;22.55;8.65;;;;;;;28.82;52.05;99307.16;1699886;82;21191;-62
2021/07/15 07:57:52;;;;;;;18.37;8.48;;;;;;;28.97;52.39;99305.66;1673425;84;21051;-62
2021/07/15 08:00:21;;;;;;;26.95;8.68;;;;;;;29.22;52.56;99306.78;1693972;84;20977;-62
2021/07/15 08:02:48;;;;;;;28.80;8.88;;;;;;;29.42;52.88;99301.96;1704236;82;22331;-62
2021/07/15 08:05:20;;;;;;;16.77;8.68;;;;;;;29.62;52.88;99296.59;1703888;83;21091;-62
2021/07/15 08:07:48;;;;;;;46.40;12.03;;;;;;;29.93;53.30;99297.87;1701770;82;21621;-62
2021/07/15 08:10:15;;;;;;;20.37;7.95;;;;;;;30.33;53.28;99290.56;1703692;83;21038;-62
2021/07/15 08:12:44;;;;;;;19.20;8.58;;;;;;;30.45;52.95;99280.81;1705900;83;21056;-63
2021/07/15 08:15:13;;;;;;;20.08;7.70;;;;;;;30.52;52.87;99273.52;1696515;82;21860;-62
2021/07/15 08:17:42;;;;;;;14.78;7.67;;;;;;;30.55;52.86;99269.58;1625541;85;21040;-63
2021/07/15 08:20:11;;;;;;;15.65;7.83;;;;;;;30.66;52.73;99246.53;1640567;85;21125;-63
2021/07/15 08:22:40;;;;;;;23.50;9.25;;;;;;;30.66;52.54;99233.05;1704230;82;21674;-64
2021/07/15 08:25:10;;;;;;;21.33;8.43;;;;;;;30.46;52.32;99227.23;1708414;82;21070;-62
2021/07/15 08:27:37;;;;;;;16.73;8.87;;;;;;;30.09;51.29;99229.61;1702021;83;21028;-62
2021/07/15 08:30:07;;;;;;;18.42;9.68;;;;;;;29.48;52.09;99220.45;1672085;83;21032;-63
2021/07/15 08:32:36;;;;;;;18.07;8.78;;;;;;;29.32;52.70;99212.79;1669578;83;21037;-63
2021/07/15 08:35:05;;;;;;;15.98;8.35;;;;;;;29.41;51.93;99207.54;1675530;83;21040;-63
2021/07/15 08:37:32;;;;;;;16.40;8.80;;;;;;;29.17;52.26;99207.09;1678747;83;20949;-63
2021/07/15 08:40:00;;;;;;;14.60;9.50;;;;;;;28.60;51.86;99212.44;1679641;83;21050;-62
2021/07/15 08:42:27;;;;;;;21.02;8.85;;;;;;;28.20;53.09;99214.90;1673691;84;20984;-63
2021/07/15 08:44:55;;;;;;;16.05;8.35;;;;;;;28.36;53.26;99204.88;1674698;85;21542;-62
2021/07/15 08:47:22;;;;;;;15.23;8.80;;;;;;;28.54;52.85;99207.87;1676019;84;21895;-63
2021/07/15 08:49:49;;;;;;;20.00;9.65;;;;;;;27.92;52.95;99208.77;1666212;85;21057;-63
2021/07/15 08:52:16;;;;;;;22.48;9.65;;;;;;;27.60;53.76;99227.09;1665357;84;21132;-64
2021/07/15 08:54:54;;;;;;;15.15;8.95;;;;;;;27.78;54.42;99238.14;1654724;85;21004;-63
2021/07/15 08:57:17;;;;;;;45.65;10.72;;;;;;;28.06;54.35;99252.09;1702671;83;22415;-63
2021/07/15 08:59:44;;;;;;;17.02;8.98;;;;;;;28.46;55.19;99254.52;1703891;82;20965;-64
2021/07/15 09:02:15;;;;;;;16.55;8.83;;;;;;;29.20;55.10;99269.86;1701658;82;21033;-63
2021/07/15 09:04:42;;;;;;;16.02;7.90;;;;;;;29.82;55.01;99257.61;1701004;82;21883;-63
2021/07/15 09:07:10;;;;;;;13.75;8.43;;;;;;;30.17;54.55;99269.47;1692914;83;21014;-63
2021/07/15 09:09:37;;;;;;;28.35;9.00;;;;;;;30.38;54.42;99277.30;1701039;83;20956;-63
2021/07/15 09:12:04;;;;;;;14.60;8.28;;;;;;;30.50;54.22;99287.74;1704549;83;21059;-63
2021/07/15 09:14:45;;;;;;;18.73;8.75;;;;;;;30.54;54.15;99299.73;1702976;83;21031;-63
2021/07/15 09:17:12;;;;;;;25.48;9.90;;;;;;;30.51;53.94;99294.77;1704494;83;21622;-64
2021/07/15 09:19:41;;;;;;;29.50;13.03;;;;;;;30.40;53.89;99298.13;1699638;82;20953;-63
2021/07/15 09:22:12;;;;;;;92.70;42.70;;;;;;;30.48;54.10;99299.24;1642562;85;20969;-63
2021/07/15 09:24:45;;;;;;;23.90;11.63;;;;;;;30.55;54.05;99302.72;1695846;83;20992;-63
2021/07/15 09:27:24;;;;;;;54.53;19.15;;;;;;;30.59;53.78;99310.41;1706274;82;21009;-63
2021/07/15 09:30:11;;;;;;;19.12;9.15;;;;;;;30.43;53.66;99316.55;1637547;85;21062;-62
2021/07/15 09:33:01;;;;;;;22.90;9.28;;;;;;;30.22;53.21;99326.22;1705870;82;21012;-63
2021/07/15 09:35:37;;;;;;;25.65;10.08;;;;;;;29.90;53.44;99334.09;1697504;83;21041;-62
2021/07/15 09:38:11;;;;;;;17.37;8.98;;;;;;;29.84;53.92;99343.00;1686211;82;21084;-63
2021/07/15 09:40:48;;;;;;;19.35;8.83;;;;;;;30.30;54.34;99339.47;1705343;83;21620;-63
2021/07/15 09:43:39;;;;;;;16.27;9.05;;;;;;;30.43;53.88;99339.45;1693246;83;21515;-63
2021/07/15 09:46:17;;;;;;;16.77;8.70;;;;;;;30.60;53.38;99344.38;1672593;84;21024;-62
2021/07/15 09:48:48;;;;;;;21.02;8.60;;;;;;;30.26;53.17;99353.05;1673829;84;21008;-62
2021/07/15 09:51:17;;;;;;;20.15;8.68;;;;;;;30.20;53.36;99352.52;1693312;82;21016;-63
2021/07/15 09:53:44;;;;;;;32.45;9.03;;;;;;;30.43;53.39;99340.80;1700533;82;21707;-63
2021/07/15 09:56:16;;;;;;;17.75;8.68;;;;;;;30.47;53.07;99346.08;1702879;82;21262;-63
2021/07/15 09:58:49;;;;;;;23.07;8.18;;;;;;;30.58;53.31;99339.72;1681577;83;21044;-63
2021/07/15 10:01:20;;;;;;;20.97;8.13;;;;;;;30.63;53.08;99334.52;1698246;83;20955;-63
2021/07/15 10:03:50;;;;;;;35.03;9.25;;;;;;;30.76;53.08;99339.35;1701264;82;20949;-63
2021/07/15 10:06:19;;;;;;;20.08;9.48;;;;;;;30.85;52.88;99333.23;1691475;83;21115;-63
2021/07/15 10:08:52;;;;;;;14.60;9.15;;;;;;;30.97;53.25;99338.77;1673664;84;21043;-63
2021/07/15 10:11:26;;;;;;;14.85;8.00;;;;;;;31.14;53.23;99335.06;1674683;84;21027;-62
2021/07/15 10:14:09;;;;;;;15.93;8.28;;;;;;;31.14;52.74;99335.06;1651880;84;20951;-62
2021/07/15 10:16:42;;;;;;;19.95;8.18;;;;;;;31.26;52.99;99340.59;1701922;81;20989;-63
2021/07/15 10:19:13;;;;;;;24.75;8.75;;;;;;;31.09;52.50;99346.52;1707605;81;21079;-62
2021/07/15 10:21:40;;;;;;;23.83;8.98;;;;;;;30.57;52.07;99346.98;1704096;82;21036;-62
2021/07/15 10:24:23;;;;;;;17.77;9.08;;;;;;;30.40;52.55;99346.61;1705151;82;20891;-62
2021/07/15 10:26:54;;;;;;;17.45;8.45;;;;;;;30.31;52.48;99341.14;1706814;82;21028;-63
2021/07/15 10:29:23;;;;;;;20.48;9.05;;;;;;;30.24;52.72;99344.34;1694373;82;21048;-63
2021/07/15 10:31:52;;;;;;;15.30;8.30;;;;;;;30.33;52.93;99349.81;1668730;83;20969;-63
2021/07/15 10:34:19;;;;;;;22.98;8.78;;;;;;;30.49;52.77;99354.76;1671907;84;21228;-64
2021/07/15 10:36:46;;;;;;;18.50;8.55;;;;;;;30.53;52.43;99358.70;1669033;84;20967;-61
2021/07/15 10:39:15;;;;;;;18.45;8.40;;;;;;;30.33;51.52;99360.59;1673521;84;20958;-63
2021/07/15 10:41:45;;;;;;;20.40;7.87;;;;;;;30.10;52.26;99356.96;1675189;84;21005;-62
2021/07/15 10:44:14;;;;;;;92.72;12.93;;;;;;;30.39;52.75;99365.16;1674560;84;21125;-63
2021/07/15 10:46:42;;;;;;;16.50;8.03;;;;;;;30.72;51.90;99358.31;1658073;85;21025;-63
2021/07/15 10:49:09;;;;;;;21.82;8.58;;;;;;;30.70;52.04;99371.20;1700728;82;21672;-63
2021/07/15 10:51:38;;;;;;;19.87;8.15;;;;;;;31.04;52.47;99369.77;1709725;82;21084;-62
2021/07/15 10:54:06;;;;;;;20.27;7.75;;;;;;;31.28;51.63;99370.34;1705761;82;20946;-61
2021/07/15 10:56:34;;;;;;;18.77;7.78;;;;;;;31.29;51.99;99362.59;1701664;82;20977;-62
2021/07/15 10:59:04;;;;;;;16.12;7.20;;;;;;;31.28;51.73;99369.00;1707464;82;21067;-65
2021/07/15 11:01:41;;;;;;;16.37;7.28;;;;;;;31.05;51.62;99366.84;1701035;82;21597;-68
2021/07/15 11:04:13;;;;;;;17.87;7.65;;;;;;;30.84;51.41;99362.58;1701167;82;21044;-64
2021/07/15 11:06:45;;;;;;;20.68;8.05;;;;;;;30.66;51.54;99373.17;1700393;82;20950;-62
2021/07/15 11:09:31;;;;;;;14.93;7.72;;;;;;;30.47;51.53;99363.59;1652173;84;21186;-63
2021/07/15 11:12:01;;;;;;;16.12;7.90;;;;;;;30.40;51.71;99364.11;1675958;84;21214;-63
2021/07/15 11:14:43;;;;;;;22.93;8.53;;;;;;;30.43;52.01;99366.38;1674515;84;21018;-63
2021/07/15 11:17:32;;;;;;;17.37;7.78;;;;;;;30.57;51.87;99374.44;1707936;82;21009;-62
2021/07/15 11:20:23;;;;;;;16.90;7.55;;;;;;;30.59;51.61;99365.64;1708201;82;21695;-63
2021/07/15 11:22:58;;;;;;;23.50;8.60;;;;;;;30.61;51.98;99363.02;1707067;82;21002;-64
2021/07/15 11:25:34;;;;;;;15.38;7.22;;;;;;;30.70;51.90;99370.38;1706773;82;21333;-63
2021/07/15 11:28:15;;;;;;;15.20;7.72;;;;;;;30.61;51.34;99369.75;1682132;82;21064;-62
2021/07/15 11:30:46;;;;;;;24.10;7.60;;;;;;;30.38;51.65;99366.17;1701844;81;21048;-63
2021/07/15 11:33:26;;;;;;;27.55;7.28;;;;;;;30.51;51.75;99368.86;1704753;82;21048;-63
2021/07/15 11:36:11;;;;;;;19.75;8.55;;;;;;;30.71;52.09;99358.55;1702762;82;20996;-64
2021/07/15 11:38:46;;;;;;;14.25;7.83;;;;;;;31.08;51.94;99362.89;1703409;82;21220;-62
2021/07/15 11:41:17;;;;;;;13.90;7.23;;;;;;;31.29;51.99;99362.59;1703133;82;21625;-65
2021/07/15 11:43:55;;;;;;;12.43;8.03;;;;;;;31.50;52.01;99364.66;1644715;85;22779;-64